Time;durP1;ratioP1;P1;durP2;ratioP2;P2;SDS_P1;SDS_P2;PMS_P1;PMS_P2;Temp;Humidity;BMP_temperature;BMP_pressure;BME280_temperature;BME280_humidity;BME280_pressure;Samples;Min_cycle;Max_cycle;Signal;HPM_P1;HPM_P2
2021/10/27 00:01:15;;;;;;;3.60;2.10;;;12.80;90.50;;;;;;5013129;28;20861;-75
2021/10/27 00:03:41;;;;;;;9.17;2.97;;;12.80;90.60;;;;;;5014558;28;20861;-74
2021/10/27 00:06:12;;;;;;;2.80;2.10;;;12.80;90.70;;;;;;5013305;28;20402;-74
2021/10/27 00:08:41;;;;;;;7.03;2.50;;;12.80;90.70;;;;;;5015092;28;20446;-73
2021/10/27 00:11:14;;;;;;;3.73;2.20;;;12.80;90.90;;;;;;5014807;28;20480;-75
2021/10/27 00:13:43;;;;;;;3.90;2.73;;;12.80;90.90;;;;;;5014962;28;20433;-74
2021/10/27 00:16:14;;;;;;;13.13;3.00;;;12.80;91.00;;;;;;5030214;28;20448;-73
2021/10/27 00:18:42;;;;;;;3.90;2.53;;;12.80;91.20;;;;;;5015843;28;20454;-74
2021/10/27 00:21:19;;;;;;;4.90;2.60;;;12.80;91.30;;;;;;5014321;28;20889;-73
2021/10/27 00:23:45;;;;;;;4.20;2.27;;;12.80;91.40;;;;;;5012321;28;20468;-73
2021/10/27 00:26:11;;;;;;;3.60;2.10;;;12.80;91.80;;;;;;5014458;28;20927;-74
2021/10/27 00:28:40;;;;;;;4.60;2.63;;;12.80;91.50;;;;;;5028702;28;20438;-73
2021/10/27 00:31:09;;;;;;;4.63;2.33;;;12.80;91.60;;;;;;5013337;28;20414;-73
2021/10/27 00:33:36;;;;;;;3.23;2.10;;;12.80;91.70;;;;;;5012058;28;20448;-73
2021/10/27 00:36:02;;;;;;;3.70;2.10;;;12.80;91.80;;;;;;5012199;28;20417;-73
2021/10/27 00:38:30;;;;;;;2.77;2.00;;;12.80;91.80;;;;;;5028916;28;20464;-73
2021/10/27 00:40:56;;;;;;;4.10;2.00;;;12.80;91.90;;;;;;5013390;28;20255;-72
2021/10/27 00:43:22;;;;;;;3.33;2.03;;;12.80;91.90;;;;;;5012338;28;20501;-73
2021/10/27 00:45:48;;;;;;;3.77;1.83;;;12.80;91.90;;;;;;5013432;28;20249;-73
2021/10/27 00:48:14;;;;;;;2.97;2.33;;;12.80;91.90;;;;;;5013010;28;20469;-73
2021/10/27 00:50:39;;;;;;;4.70;1.93;;;12.80;91.90;;;;;;4995574;28;20177;-73
2021/10/27 00:53:05;;;;;;;2.40;1.70;;;12.80;91.90;;;;;;5013233;28;20245;-74
2021/10/27 00:55:38;;;;;;;2.87;2.30;;;12.80;91.90;;;;;;5013513;28;20194;-74
2021/10/27 00:58:10;;;;;;;4.07;1.50;;;12.80;91.90;;;;;;5011971;28;20230;-73
2021/10/27 01:00:36;;;;;;;2.83;2.03;;;12.80;91.90;;;;;;5013273;28;20756;-73
2021/10/27 01:03:02;;;;;;;3.13;1.87;;;12.80;91.90;;;;;;5013144;28;20414;-74
2021/10/27 01:05:28;;;;;;;2.20;1.77;;;12.80;92.00;;;;;;5012916;28;20189;-74
2021/10/27 01:07:54;;;;;;;2.27;1.57;;;12.80;92.00;;;;;;5012908;28;20402;-74
2021/10/27 01:10:29;;;;;;;3.90;1.27;;;12.80;92.40;;;;;;5013041;28;20521;-73
2021/10/27 01:13:01;;;;;;;1.60;1.30;;;12.80;92.00;;;;;;5012876;28;20904;-74
2021/10/27 01:15:30;;;;;;;2.40;1.53;;;12.80;92.00;;;;;;5011768;28;20449;-74
2021/10/27 01:17:56;;;;;;;2.53;1.13;;;12.80;92.30;;;;;;5012815;28;20461;-74
2021/10/27 01:20:21;;;;;;;2.43;1.13;;;12.80;92.00;;;;;;5013111;28;20163;-74
2021/10/27 01:22:50;;;;;;;2.40;1.23;;;12.80;92.00;;;;;;5012919;28;20407;-73
2021/10/27 01:25:15;;;;;;;4.10;1.40;;;12.80;92.00;;;;;;5012563;28;20185;-73
2021/10/27 01:27:45;;;;;;;1.93;1.37;;;12.80;92.00;;;;;;5012631;28;20778;-73
2021/10/27 01:30:25;;;;;;;2.10;1.30;;;12.80;92.00;;;;;;5013042;28;20410;-73
2021/10/27 01:32:51;;;;;;;1.57;1.40;;;12.80;92.10;;;;;;5027669;28;20468;-72
2021/10/27 01:35:25;;;;;;;1.93;1.03;;;12.80;92.00;;;;;;5013078;28;20819;-74
2021/10/27 01:37:54;;;;;;;1.40;1.00;;;12.80;92.00;;;;;;5011191;28;20202;-72
2021/10/27 01:40:21;;;;;;;2.07;0.90;;;12.80;92.00;;;;;;5027585;28;20883;-72
2021/10/27 01:42:56;;;;;;;1.80;1.13;;;12.80;92.00;;;;;;4995129;28;20419;-72
2021/10/27 01:45:28;;;;;;;2.20;1.00;;;12.90;92.00;;;;;;5011018;28;20436;-72
2021/10/27 01:47:57;;;;;;;4.73;1.20;;;12.90;92.00;;;;;;5011912;28;20414;-74
2021/10/27 01:50:23;;;;;;;1.43;1.00;;;12.90;92.30;;;;;;5010634;28;20940;-73
2021/10/27 01:52:52;;;;;;;1.40;1.03;;;12.90;91.90;;;;;;5012163;28;20465;-74
2021/10/27 01:55:18;;;;;;;2.27;1.50;;;12.90;91.90;;;;;;5012031;28;20297;-73
2021/10/27 01:57:46;;;;;;;3.13;1.17;;;12.90;91.90;;;;;;5012026;28;20908;-73
2021/10/27 02:00:18;;;;;;;2.07;1.07;;;12.90;91.90;;;;;;5012288;28;20421;-73
2021/10/27 02:02:43;;;;;;;2.03;1.23;;;12.90;91.80;;;;;;5011947;28;20784;-73
2021/10/27 02:05:09;;;;;;;8.00;1.50;;;13.00;91.80;;;;;;5011712;28;20426;-74
2021/10/27 02:07:46;;;;;;;2.13;1.10;;;13.00;91.80;;;;;;5027047;28;20612;-73
2021/10/27 02:10:12;;;;;;;1.30;1.00;;;13.00;91.80;;;;;;5011559;28;20513;-73
2021/10/27 02:12:40;;;;;;;2.00;1.17;;;13.00;91.80;;;;;;5011373;28;20413;-73
2021/10/27 02:15:20;;;;;;;1.30;1.00;;;13.00;91.80;;;;;;5011449;28;20437;-73
2021/10/27 02:17:56;;;;;;;1.10;0.73;;;13.00;91.80;;;;;;5010497;28;20410;-73
2021/10/27 02:20:23;;;;;;;1.70;1.20;;;13.00;91.80;;;;;;5011608;28;20445;-73
2021/10/27 02:22:51;;;;;;;1.30;0.80;;;13.00;91.80;;;;;;5011492;28;20418;-74
2021/10/27 02:25:22;;;;;;;1.33;0.90;;;13.00;91.80;;;;;;5009322;28;20471;-74
2021/10/27 02:27:51;;;;;;;1.70;1.10;;;13.00;91.80;;;;;;5011489;28;20913;-74
2021/10/27 02:30:26;;;;;;;1.20;0.80;;;13.00;91.80;;;;;;5010658;28;20410;-74
2021/10/27 02:32:51;;;;;;;1.90;1.00;;;13.00;91.80;;;;;;5011424;28;20461;-73
2021/10/27 02:35:26;;;;;;;1.90;1.10;;;13.00;91.70;;;;;;5010257;28;20470;-74
2021/10/27 02:37:52;;;;;;;1.57;0.90;;;13.00;91.80;;;;;;5011744;28;20847;-73
2021/10/27 02:40:18;;;;;;;2.77;1.50;;;13.00;91.80;;;;;;5010505;28;20463;-73
2021/10/27 02:42:44;;;;;;;2.67;1.37;;;13.00;91.80;;;;;;5011180;28;20250;-74
2021/10/27 02:45:19;;;;;;;2.37;1.80;;;13.00;91.80;;;;;;5011362;28;20183;-74
2021/10/27 02:47:45;;;;;;;2.00;1.20;;;13.00;91.80;;;;;;5011596;28;20425;-73
2021/10/27 02:50:13;;;;;;;2.80;1.23;;;13.00;91.80;;;;;;5009406;28;20756;-72
2021/10/27 02:52:44;;;;;;;1.33;1.00;;;13.00;91.80;;;;;;5010981;28;20214;-73
2021/10/27 02:55:11;;;;;;;1.53;0.83;;;13.00;91.80;;;;;;5009860;28;20437;-72
2021/10/27 02:57:40;;;;;;;1.80;0.97;;;13.00;91.80;;;;;;5011683;28;20903;-73
2021/10/27 03:00:20;;;;;;;1.83;1.00;;;13.00;91.80;;;;;;5026957;28;20776;-74
2021/10/27 03:02:46;;;;;;;2.27;1.20;;;13.00;91.90;;;;;;5012529;28;20468;-73
2021/10/27 03:05:16;;;;;;;1.40;0.97;;;13.00;91.90;;;;;;5012151;28;20804;-74
2021/10/27 03:07:44;;;;;;;1.90;1.47;;;13.00;92.00;;;;;;5026768;28;20171;-74
2021/10/27 03:10:15;;;;;;;2.07;1.17;;;13.00;92.00;;;;;;5010767;28;20414;-74
2021/10/27 03:12:45;;;;;;;2.40;1.70;;;13.00;92.10;;;;;;5009388;28;20178;-73
2021/10/27 03:15:17;;;;;;;1.37;0.80;;;12.90;92.10;;;;;;5025730;28;20441;-73
2021/10/27 03:17:45;;;;;;;3.00;1.40;;;12.90;92.10;;;;;;5010920;28;20777;-73
2021/10/27 03:20:14;;;;;;;2.73;2.13;;;12.90;92.20;;;;;;5009712;28;20414;-74
2021/10/27 03:22:48;;;;;;;3.13;1.33;;;12.80;92.30;;;;;;5010556;28;20442;-73
2021/10/27 03:25:16;;;;;;;1.93;1.27;;;12.80;92.40;;;;;;5010383;28;20437;-74
2021/10/27 03:27:49;;;;;;;1.53;1.20;;;12.80;92.80;;;;;;5010503;28;20973;-73
2021/10/27 03:30:25;;;;;;;1.73;1.10;;;12.70;92.50;;;;;;5009175;28;20425;-74
2021/10/27 03:32:58;;;;;;;2.17;1.40;;;12.60;92.60;;;;;;5010841;28;20872;-73
2021/10/27 03:35:25;;;;;;;5.03;1.47;;;12.60;92.70;;;;;;5009276;28;20517;-74
2021/10/27 03:37:53;;;;;;;2.70;1.57;;;12.50;92.90;;;;;;5010739;28;20584;-73
2021/10/27 03:40:19;;;;;;;2.03;1.63;;;12.40;93.00;;;;;;5010544;28;20472;-73
2021/10/27 03:42:44;;;;;;;3.43;1.40;;;12.30;93.20;;;;;;5010470;28;20819;-73
2021/10/27 03:45:17;;;;;;;2.60;1.47;;;12.30;93.30;;;;;;5009074;28;20187;-73
2021/10/27 03:47:49;;;;;;;3.20;1.37;;;12.20;93.40;;;;;;5009000;28;20163;-74
2021/10/27 03:50:14;;;;;;;3.47;1.43;;;12.20;93.60;;;;;;5009461;28;20942;-74
2021/10/27 03:52:52;;;;;;;2.33;1.50;;;12.10;93.70;;;;;;5010346;28;20218;-73
2021/10/27 03:55:22;;;;;;;7.30;2.03;;;12.10;93.80;;;;;;5010878;28;20205;-74
2021/10/27 03:57:50;;;;;;;1.77;1.30;;;12.10;94.00;;;;;;5010728;28;20823;-74
2021/10/27 04:00:19;;;;;;;2.33;1.53;;;12.10;94.00;;;;;;5010839;28;20601;-73
2021/10/27 04:02:47;;;;;;;3.60;1.57;;;12.00;94.10;;;;;;5025619;28;20414;-73
2021/10/27 04:05:13;;;;;;;3.23;1.77;;;12.00;94.20;;;;;;5010277;28;20453;-72
2021/10/27 04:07:46;;;;;;;2.23;1.70;;;12.00;94.40;;;;;;5025884;28;20402;-73
2021/10/27 04:10:26;;;;;;;2.10;1.50;;;12.00;94.40;;;;;;5010355;28;20175;-73
2021/10/27 04:12:52;;;;;;;4.90;1.70;;;11.90;94.50;;;;;;5025432;28;20945;-74
2021/10/27 04:15:18;;;;;;;2.50;1.60;;;11.90;94.50;;;;;;5010349;28;20424;-74
2021/10/27 04:17:43;;;;;;;1.93;1.60;;;11.90;94.70;;;;;;5010537;28;20692;-74
2021/10/27 04:20:10;;;;;;;2.40;1.87;;;11.80;94.70;;;;;;5014002;28;20168;-74
2021/10/27 04:22:39;;;;;;;5.43;2.10;;;11.80;94.80;;;;;;5029136;28;20641;-73
2021/10/27 04:25:07;;;;;;;4.23;2.27;;;11.80;94.90;;;;;;5013848;28;20445;-74
2021/10/27 04:27:33;;;;;;;4.80;2.30;;;11.80;95.00;;;;;;5029492;28;20424;-74
2021/10/27 04:29:58;;;;;;;3.20;2.17;;;11.80;95.10;;;;;;5033647;28;20444;-73
2021/10/27 04:32:41;;;;;;;3.07;2.20;;;11.70;95.20;;;;;;5031821;28;20181;-74
2021/10/27 04:35:15;;;;;;;7.80;4.03;;;11.80;95.30;;;;;;5032164;28;20209;-74
2021/10/27 04:37:46;;;;;;;5.20;3.10;;;11.80;95.40;;;;;;5032102;28;20500;-74
2021/10/27 04:40:15;;;;;;;6.13;2.93;;;11.80;95.40;;;;;;5033737;28;20824;-73
2021/10/27 04:42:43;;;;;;;4.80;2.70;;;11.90;95.50;;;;;;5035596;28;20413;-74
2021/10/27 04:45:13;;;;;;;5.17;2.97;;;11.90;95.40;;;;;;5048835;28;20433;-74
2021/10/27 04:47:43;;;;;;;11.00;3.47;;;11.90;95.70;;;;;;5033025;28;20420;-74
2021/10/27 04:50:12;;;;;;;4.33;2.70;;;12.00;95.30;;;;;;5032478;28;20420;-76
2021/10/27 04:52:37;;;;;;;4.00;2.80;;;12.10;95.30;;;;;;5032854;28;20405;-76
2021/10/27 04:55:04;;;;;;;6.30;3.37;;;12.10;95.30;;;;;;5033328;28;20533;-76
2021/10/27 04:57:29;;;;;;;4.30;3.30;;;12.20;95.10;;;;;;5033219;28;20170;-76
2021/10/27 04:59:55;;;;;;;4.17;3.30;;;12.30;95.00;;;;;;5033518;28;20463;-76
2021/10/27 05:02:21;;;;;;;5.27;3.23;;;12.30;94.90;;;;;;5034468;28;20178;-77
2021/10/27 05:04:46;;;;;;;3.10;2.80;;;12.30;94.80;;;;;;5034256;28;20182;-76
2021/10/27 05:07:15;;;;;;;8.70;3.77;;;12.30;94.70;;;;;;5050063;28;20174;-77
2021/10/27 05:09:42;;;;;;;3.67;3.10;;;12.30;94.60;;;;;;5033074;28;20175;-75
2021/10/27 05:12:08;;;;;;;8.03;3.20;;;12.20;94.60;;;;;;5031886;28;20429;-76
2021/10/27 05:14:36;;;;;;;6.03;3.90;;;12.20;94.70;;;;;;5032506;28;20447;-75
2021/10/27 05:17:05;;;;;;;4.37;3.20;;;12.20;94.80;;;;;;5033291;28;20923;-76
2021/10/27 05:19:31;;;;;;;10.70;3.50;;;12.20;94.90;;;;;;5032699;28;20460;-76
2021/10/27 05:21:57;;;;;;;6.93;3.73;;;12.10;94.80;;;;;;5033494;28;20725;-76
2021/10/27 05:24:23;;;;;;;3.80;3.10;;;12.10;94.90;;;;;;5033830;28;20437;-78
2021/10/27 05:26:48;;;;;;;6.40;3.53;;;12.10;94.90;;;;;;5032096;28;20158;-75
2021/10/27 05:29:14;;;;;;;5.53;3.70;;;12.10;94.90;;;;;;5032088;28;20216;-76
2021/10/27 05:31:40;;;;;;;5.07;3.30;;;12.10;95.00;;;;;;5032440;28;20171;-76
2021/10/27 05:34:05;;;;;;;8.70;3.90;;;12.10;95.00;;;;;;5033931;28;20187;-76
2021/10/27 05:36:31;;;;;;;4.53;3.63;;;12.10;95.00;;;;;;5032761;28;20277;-76
2021/10/27 05:38:57;;;;;;;4.93;3.37;;;12.20;95.00;;;;;;5032210;28;20238;-77
2021/10/27 05:41:23;;;;;;;5.63;3.40;;;12.20;95.00;;;;;;5032345;28;20826;-76
2021/10/27 05:43:48;;;;;;;9.00;3.43;;;12.20;94.90;;;;;;5031307;28;20236;-76
2021/10/27 05:46:17;;;;;;;13.37;4.30;;;12.30;94.90;;;;;;5032238;28;20167;-76
2021/10/27 05:48:46;;;;;;;7.03;3.77;;;12.30;94.80;;;;;;5042283;28;20626;-77
2021/10/27 05:56:25;;;;;;;6.13;4.20;;;12.40;94.60;;;;;;5032120;28;20482;-76
2021/10/27 05:58:50;;;;;;;7.77;4.07;;;12.40;94.50;;;;;;5012388;28;21038;-76
2021/10/27 06:01:16;;;;;;;6.03;3.80;;;12.40;94.40;;;;;;5023565;28;20225;-76
2021/10/27 06:03:42;;;;;;;5.60;4.13;;;12.40;94.30;;;;;;5031791;28;20201;-77
2021/10/27 06:06:08;;;;;;;7.23;4.17;;;12.40;94.30;;;;;;5039915;28;20424;-75
2021/10/27 06:08:34;;;;;;;8.17;4.40;;;12.40;94.20;;;;;;5033860;28;20191;-75
2021/10/27 06:11:09;;;;;;;7.10;4.10;;;12.40;94.10;;;;;;5049948;28;20414;-76
2021/10/27 06:13:36;;;;;;;13.40;3.63;;;12.40;94.00;;;;;;5041789;28;20220;-76
2021/10/27 06:16:02;;;;;;;8.30;4.30;;;12.40;94.00;;;;;;5046762;28;20420;-75
2021/10/27 06:18:28;;;;;;;5.60;4.53;;;12.40;93.90;;;;;;5031223;28;20449;-76
2021/10/27 06:20:54;;;;;;;9.40;4.63;;;12.40;93.90;;;;;;5030528;28;20562;-75
2021/10/27 06:23:22;;;;;;;7.40;4.30;;;12.40;93.80;;;;;;5029974;28;20430;-75
2021/10/27 06:25:50;;;;;;;7.30;4.80;;;12.40;93.80;;;;;;5046212;28;20479;-77
2021/10/27 06:28:22;;;;;;;6.73;4.67;;;12.50;93.80;;;;;;5030114;28;20417;-76
2021/10/27 06:30:53;;;;;;;13.20;4.47;;;12.40;93.70;;;;;;5030924;28;20432;-77
2021/10/27 06:33:40;;;;;;;7.70;4.33;;;12.40;93.60;;;;;;5030169;28;20576;-79
2021/10/27 06:36:19;;;;;;;8.43;4.63;;;12.40;93.60;;;;;;5031485;28;20443;-76
2021/10/27 06:46:49;;;;;;;7.07;4.67;;;12.60;93.50;;;;;;5036993;28;20786;-76
2021/10/27 06:49:15;;;;;;;12.60;4.93;;;12.60;93.10;;;;;;5030517;28;20405;-76
2021/10/27 06:51:41;;;;;;;9.60;3.97;;;12.60;93.00;;;;;;5031136;28;20423;-75
2021/10/27 06:54:07;;;;;;;6.47;4.47;;;12.60;92.80;;;;;;5027565;28;20464;-77
2021/10/27 06:56:35;;;;;;;5.60;3.93;;;12.60;92.90;;;;;;5027933;28;20174;-77
2021/10/27 07:17:57;;;;;;;6.83;4.80;;;12.90;91.90;;;;;;5014358;28;20938;-76
2021/10/27 07:20:27;;;;;;;9.70;4.93;;;13.00;92.30;;;;;;5010868;28;20417;-78
2021/10/27 07:22:55;;;;;;;15.97;5.17;;;13.20;91.50;;;;;;5022631;28;20182;-76
2021/10/27 07:25:20;;;;;;;5.50;3.83;;;13.40;91.00;;;;;;5030609;28;20456;-77
2021/10/27 07:27:49;;;;;;;8.70;4.00;;;13.50;90.60;;;;;;5031087;28;20855;-77
2021/10/27 07:30:16;;;;;;;7.37;4.23;;;13.70;89.80;;;;;;5031471;28;20431;-77
2021/10/27 07:32:42;;;;;;;8.90;4.00;;;13.80;89.60;;;;;;5031499;28;20430;-77
2021/10/27 07:40:38;;;;;;;7.07;3.87;;;14.20;86.40;;;;;;5032862;28;20974;-78
2021/10/27 07:43:20;;;;;;;6.07;3.53;;;14.30;86.50;;;;;;5017628;28;20904;-78
2021/10/27 07:45:49;;;;;;;10.00;5.27;;;14.30;84.70;;;;;;5030769;28;20661;-78
2021/10/27 07:48:16;;;;;;;9.07;4.10;;;14.30;84.10;;;;;;5047769;28;20876;-77
2021/10/27 07:50:43;;;;;;;4.57;3.57;;;14.20;84.30;;;;;;5046057;28;20420;-76
2021/10/27 07:53:11;;;;;;;7.83;4.27;;;14.20;83.60;;;;;;5035192;28;20413;-77
2021/10/27 07:55:42;;;;;;;4.83;4.13;;;14.30;84.20;;;;;;5000835;28;20436;-77
2021/10/27 07:58:10;;;;;;;8.27;3.67;;;14.30;84.90;;;;;;5036693;28;20451;-77
2021/10/27 08:00:36;;;;;;;8.93;4.00;;;14.30;83.70;;;;;;5038609;28;20397;-78
2021/10/27 08:03:03;;;;;;;6.73;3.80;;;14.10;83.80;;;;;;5019420;28;20405;-76
2021/10/27 08:05:32;;;;;;;5.60;3.60;;;14.10;84.70;;;;;;5014261;28;20795;-77
2021/10/27 08:07:58;;;;;;;6.60;4.13;;;14.10;84.80;;;;;;5026562;28;20424;-77
2021/10/27 08:10:25;;;;;;;6.33;4.10;;;14.10;84.70;;;;;;5033384;28;20418;-77
2021/10/27 08:12:50;;;;;;;7.00;4.50;;;14.10;84.20;;;;;;5032841;28;20417;-77
2021/10/27 08:15:18;;;;;;;4.20;3.33;;;14.00;85.00;;;;;;5033571;28;20483;-75
2021/10/27 08:17:44;;;;;;;11.13;4.80;;;14.00;85.00;;;;;;5033553;28;20171;-76
2021/10/27 08:20:13;;;;;;;6.83;4.13;;;14.00;84.80;;;;;;5033522;28;20456;-76
2021/10/27 08:22:42;;;;;;;7.00;3.77;;;14.00;85.30;;;;;;5034363;28;20410;-76
2021/10/27 08:25:15;;;;;;;6.47;4.77;;;14.00;85.40;;;;;;5033009;28;20437;-76
2021/10/27 08:27:41;;;;;;;16.43;10.73;;;14.00;85.40;;;;;;5033700;28;20456;-76
2021/10/27 08:30:10;;;;;;;6.77;4.00;;;14.00;85.20;;;;;;5037050;28;20440;-77
2021/10/27 08:35:13;;;;;;;6.03;3.50;;;14.00;85.20;;;;;;5035462;28;20456;-77
2021/10/27 08:37:47;;;;;;;13.00;3.67;;;14.10;85.80;;;;;;5048946;28;20860;-79
2021/10/27 08:40:16;;;;;;;13.40;3.27;;;14.10;85.00;;;;;;5033647;28;20424;-77
2021/10/27 08:42:43;;;;;;;7.17;3.23;;;14.10;85.00;;;;;;5033784;28;20911;-77
2021/10/27 08:45:09;;;;;;;6.13;4.57;;;14.20;85.50;;;;;;5032404;28;20429;-76
2021/10/27 08:47:40;;;;;;;7.77;5.30;;;14.20;84.90;;;;;;5033980;28;20401;-76
2021/10/27 08:50:09;;;;;;;8.20;5.20;;;14.20;85.20;;;;;;5033619;28;20428;-78
2021/10/27 08:52:35;;;;;;;6.10;3.60;;;14.30;84.60;;;;;;5032742;28;20424;-76
2021/10/27 08:55:02;;;;;;;4.03;3.30;;;14.30;84.10;;;;;;5032315;28;20477;-77
2021/10/27 08:57:28;;;;;;;6.13;3.03;;;14.40;84.30;;;;;;5033854;28;20489;-77
2021/10/27 09:00:02;;;;;;;8.40;3.20;;;14.40;83.80;;;;;;5030401;28;20465;-77
2021/10/27 09:05:27;;;;;;;6.20;2.97;;;14.60;83.40;;;;;;5033217;28;20432;-76
2021/10/27 09:33:41;;;;;;;3.60;2.93;;;14.90;81.90;;;;;;4999956;28;20479;-79
2021/10/27 09:34:43;;;;;;;19.43;10.43;;;15.20;80.20;;;;;;5031102;28;20474;-77
2021/10/27 09:37:49;;;;;;;4.03;1.90;;;15.20;79.20;;;;;;5031602;28;20417;-76
2021/10/27 09:40:40;;;;;;;2.80;2.20;;;15.20;79.50;;;;;;5031617;28;20426;-77
2021/10/27 10:05:03;;;;;;;8.67;2.60;;;15.70;77.50;;;;;;5052559;28;20429;-75
2021/10/27 10:07:29;;;;;;;5.10;2.37;;;15.70;77.30;;;;;;5041250;28;20404;-78
2021/10/27 10:09:56;;;;;;;6.10;4.47;;;15.70;77.20;;;;;;5044625;28;20426;-77
2021/10/27 10:12:22;;;;;;;4.63;2.27;;;15.70;77.40;;;;;;5031520;28;20909;-76
2021/10/27 10:14:50;;;;;;;8.27;2.97;;;15.70;76.90;;;;;;5031184;28;20437;-77
2021/10/27 10:17:16;;;;;;;5.47;1.70;;;15.60;76.50;;;;;;5040544;28;20724;-77
2021/10/27 10:19:43;;;;;;;4.67;2.50;;;15.60;76.30;;;;;;5033062;28;20461;-77
2021/10/27 10:22:42;;;;;;;7.90;2.20;;;15.60;76.30;;;;;;5032913;28;20471;-76
2021/10/27 10:25:20;;;;;;;9.30;4.43;;;15.60;76.40;;;;;;5023639;28;20474;-77
2021/10/27 10:27:47;;;;;;;15.80;8.10;;;15.60;76.50;;;;;;5032799;28;20426;-77
2021/10/27 10:30:41;;;;;;;4.60;3.17;;;15.60;76.60;;;;;;5039759;28;20918;-77
2021/10/27 10:33:11;;;;;;;7.17;3.03;;;15.60;76.40;;;;;;5015689;28;20476;-77
2021/10/27 10:36:03;;;;;;;13.67;2.80;;;15.70;75.60;;;;;;4998774;28;20458;-76
2021/10/27 10:56:21;;;;;;;9.63;3.10;;;16.40;74.00;;;;;;5031037;28;20444;-78
2021/10/27 11:40:45;;;;;;;4.73;2.67;;;17.60;66.10;;;;;;5050729;28;20421;-79
2021/10/27 11:45:59;;;;;;;4.10;2.73;;;17.70;64.90;;;;;;5032750;28;20919;-77
2021/10/27 11:50:55;;;;;;;3.40;2.33;;;17.70;65.80;;;;;;5034797;28;20519;-76
2021/10/27 11:53:30;;;;;;;4.90;3.20;;;17.80;64.90;;;;;;5033071;28;20424;-77
2021/10/27 11:56:17;;;;;;;8.03;2.20;;;17.80;64.90;;;;;;5034722;28;20603;-77
2021/10/27 11:58:45;;;;;;;4.87;2.57;;;17.70;65.20;;;;;;5034641;28;20490;-78
2021/10/27 12:01:30;;;;;;;4.77;2.87;;;17.60;65.90;;;;;;5034713;28;20553;-77
2021/10/27 12:04:00;;;;;;;5.40;3.20;;;17.60;65.50;;;;;;5033006;28;20451;-77
2021/10/27 12:06:35;;;;;;;7.20;3.10;;;17.60;66.10;;;;;;5034332;28;20425;-76
2021/10/27 12:09:20;;;;;;;4.40;2.50;;;17.40;66.20;;;;;;5044162;28;20462;-76
2021/10/27 12:18:24;;;;;;;5.63;4.30;;;17.20;66.90;;;;;;5033091;28;20417;-76
2021/10/27 12:20:33;;;;;;;4.83;1.93;;;17.10;67.80;;;;;;5027644;28;20425;-76
2021/10/27 12:22:59;;;;;;;6.63;2.50;;;17.10;67.80;;;;;;5033827;28;20413;-77
2021/10/27 12:25:26;;;;;;;3.90;2.50;;;17.10;67.50;;;;;;5032226;28;20433;-77
2021/10/27 12:27:58;;;;;;;6.83;2.60;;;17.10;67.50;;;;;;5031998;28;20415;-77
2021/10/27 12:30:24;;;;;;;3.40;2.17;;;17.10;67.30;;;;;;5032241;28;20494;-77
2021/10/27 12:32:57;;;;;;;7.60;2.80;;;17.10;67.60;;;;;;5047499;28;20432;-77
2021/10/27 12:35:26;;;;;;;7.87;4.00;;;17.10;67.50;;;;;;5033171;28;20523;-77
2021/10/27 12:38:01;;;;;;;3.70;2.53;;;17.10;67.40;;;;;;5032639;28;20494;-78
2021/10/27 12:40:39;;;;;;;4.40;2.60;;;17.20;67.30;;;;;;5034176;28;20425;-77
2021/10/27 12:43:11;;;;;;;7.27;3.50;;;17.20;67.30;;;;;;5035545;28;20447;-77
2021/10/27 12:45:38;;;;;;;5.77;3.30;;;17.10;67.20;;;;;;5033593;28;20552;-75
2021/10/27 12:48:17;;;;;;;4.60;2.40;;;17.20;67.60;;;;;;5033838;28;20471;-77
2021/10/27 12:51:01;;;;;;;9.33;3.57;;;17.20;67.40;;;;;;5033800;28;20401;-77
2021/10/27 12:53:37;;;;;;;5.87;2.43;;;17.20;67.80;;;;;;5034051;28;20748;-77
2021/10/27 12:56:04;;;;;;;5.13;2.70;;;17.20;68.10;;;;;;5031988;28;20420;-78
2021/10/27 12:58:33;;;;;;;5.33;2.23;;;17.30;67.50;;;;;;5032127;28;20531;-78
2021/10/27 13:11:26;;;;;;;9.73;2.73;;;17.20;67.30;;;;;;5034516;28;20475;-77
2021/10/27 13:17:00;;;;;;;6.77;3.60;;;17.10;67.50;;;;;;5034356;28;20463;-77
2021/10/27 13:21:58;;;;;;;5.97;2.23;;;17.30;68.00;;;;;;5034400;28;20421;-78
2021/10/27 13:29:55;;;;;;;8.70;5.93;;;17.30;66.90;;;;;;5038977;28;20436;-77
2021/10/27 13:32:25;;;;;;;4.63;2.87;;;17.30;67.10;;;;;;5037072;28;20433;-77
2021/10/27 13:34:51;;;;;;;6.90;3.20;;;17.20;67.00;;;;;;5035385;28;20957;-78
2021/10/27 13:37:18;;;;;;;2.40;1.77;;;17.20;67.00;;;;;;5034645;28;20431;-76
2021/10/27 13:39:45;;;;;;;7.37;2.40;;;17.20;66.80;;;;;;5015514;28;20250;-78
2021/10/27 13:42:21;;;;;;;2.33;1.57;;;17.20;66.10;;;;;;5039199;28;20432;-77
2021/10/27 13:45:04;;;;;;;3.23;2.53;;;17.20;65.90;;;;;;5062287;28;20444;-77
2021/10/27 13:47:38;;;;;;;3.03;1.70;;;17.30;66.00;;;;;;5031145;28;20421;-77
2021/10/27 14:06:33;;;;;;;3.90;1.50;;;17.50;66.00;;;;;;5032999;28;20405;-78
2021/10/27 14:09:08;;;;;;;4.80;2.70;;;17.50;65.40;;;;;;5032347;28;20459;-77
2021/10/27 14:11:42;;;;;;;5.60;2.40;;;17.60;65.90;;;;;;5032520;28;20438;-77
2021/10/27 14:39:14;;;;;;;2.93;1.80;;;17.40;65.00;;;;;;5013141;28;20830;-78
2021/10/27 14:47:35;;;;;;;4.30;1.80;;;17.40;65.30;;;;;;5013746;28;20409;-76
2021/10/27 15:20:18;;;;;;;6.57;3.13;;;17.20;66.20;;;;;;5073857;28;20459;-74
2021/10/27 15:23:05;;;;;;;3.93;1.83;;;17.20;66.30;;;;;;5074750;28;20417;-73
2021/10/27 15:25:45;;;;;;;8.60;3.03;;;17.20;66.50;;;;;;5075806;28;20422;-76
2021/10/27 15:33:39;;;;;;;6.07;2.40;;;17.20;66.70;;;;;;5093797;28;20452;-74
2021/10/27 15:52:07;;;;;;;4.90;3.20;;;16.30;70.00;;;;;;5090583;28;20457;-73
2021/10/27 15:54:34;;;;;;;4.70;2.97;;;16.20;70.60;;;;;;5083468;28;20418;-72
2021/10/27 15:57:01;;;;;;;4.53;2.77;;;16.10;71.20;;;;;;5084044;28;20431;-73
2021/10/27 15:59:28;;;;;;;10.27;3.50;;;16.00;71.50;;;;;;5074077;28;20455;-72
2021/10/27 16:01:54;;;;;;;6.87;3.43;;;15.90;71.90;;;;;;5073889;28;20946;-72
2021/10/27 16:04:21;;;;;;;4.57;2.77;;;15.80;72.50;;;;;;5089049;28;21014;-72
2021/10/27 16:06:51;;;;;;;9.40;4.03;;;15.70;73.50;;;;;;5081723;28;20443;-72
2021/10/27 16:09:17;;;;;;;4.90;2.73;;;15.70;73.50;;;;;;5056181;28;20422;-73
2021/10/27 16:11:44;;;;;;;7.70;3.90;;;15.60;73.90;;;;;;5088297;28;20422;-73
2021/10/27 16:14:11;;;;;;;6.60;3.10;;;15.50;74.00;;;;;;5083521;28;20435;-73
2021/10/27 16:16:37;;;;;;;5.50;3.07;;;15.40;74.40;;;;;;5091989;28;20462;-78
2021/10/27 16:19:03;;;;;;;5.17;2.93;;;15.40;75.20;;;;;;5093990;28;20456;-80
2021/10/27 16:21:30;;;;;;;8.67;3.90;;;15.30;75.30;;;;;;5074840;28;20428;-78
2021/10/27 16:23:58;;;;;;;11.27;3.73;;;15.20;75.50;;;;;;5089736;28;20430;-77
2021/10/27 16:26:31;;;;;;;5.27;3.33;;;15.20;76.10;;;;;;5105417;28;20478;-78
2021/10/27 16:28:57;;;;;;;17.20;3.23;;;15.10;76.30;;;;;;5072865;28;20415;-79
2021/10/27 16:31:23;;;;;;;6.73;3.33;;;15.10;76.90;;;;;;5095895;28;20427;-81
2021/10/27 16:33:49;;;;;;;4.73;3.10;;;15.10;77.20;;;;;;5098078;28;20196;-79
2021/10/27 16:36:15;;;;;;;10.07;5.43;;;15.00;77.10;;;;;;5095261;28;20509;-79
2021/10/27 16:38:42;;;;;;;7.50;3.83;;;15.00;77.40;;;;;;5090466;28;20204;-78
2021/10/27 16:41:09;;;;;;;7.30;3.53;;;14.90;77.60;;;;;;5087089;28;20512;-81
2021/10/27 16:43:35;;;;;;;5.20;3.30;;;14.90;77.70;;;;;;5089933;28;20851;-80
2021/10/27 16:46:01;;;;;;;6.83;3.70;;;14.80;77.80;;;;;;5093345;28;20586;-80
2021/10/27 16:48:26;;;;;;;5.90;3.30;;;14.80;78.10;;;;;;5085872;28;20399;-77
2021/10/27 16:50:53;;;;;;;7.70;4.77;;;14.70;78.40;;;;;;5083662;28;20285;-80
2021/10/27 16:53:21;;;;;;;6.73;3.90;;;14.70;78.60;;;;;;5088428;28;20686;-76
2021/10/27 16:55:47;;;;;;;7.70;4.70;;;14.60;78.50;;;;;;5072666;28;20855;-78
2021/10/27 16:58:14;;;;;;;6.97;4.47;;;14.60;78.80;;;;;;5091785;28;20507;-79
2021/10/27 17:00:40;;;;;;;8.93;5.00;;;14.50;79.00;;;;;;5100176;28;20423;-80
2021/10/27 17:03:06;;;;;;;13.27;11.23;;;14.50;79.50;;;;;;5109249;28;20430;-78
2021/10/27 17:05:32;;;;;;;8.90;5.87;;;14.40;80.00;;;;;;5109127;28;20526;-78
2021/10/27 17:07:58;;;;;;;6.10;4.10;;;14.40;80.10;;;;;;5106441;28;20425;-77
2021/10/27 17:10:27;;;;;;;7.23;4.47;;;14.40;80.50;;;;;;5109191;28;20145;-81
2021/10/27 17:12:53;;;;;;;8.60;4.87;;;14.30;80.50;;;;;;5110488;28;20206;-82
2021/10/27 17:15:19;;;;;;;7.50;3.97;;;14.30;80.90;;;;;;5110002;28;20690;-81
2021/10/27 17:17:52;;;;;;;7.37;3.90;;;14.20;81.10;;;;;;5113012;28;20407;-82
2021/10/27 17:20:21;;;;;;;8.77;4.50;;;14.20;81.50;;;;;;5113395;28;20520;-81
2021/10/27 17:23:15;;;;;;;10.30;4.50;;;14.20;81.80;;;;;;5088020;28;20581;-79
2021/10/27 17:25:40;;;;;;;7.30;5.20;;;14.10;82.10;;;;;;5073866;28;20427;-75
2021/10/27 17:28:06;;;;;;;19.20;8.67;;;14.10;82.30;;;;;;5074677;28;20976;-76
2021/10/27 17:30:36;;;;;;;8.83;4.37;;;14.00;82.60;;;;;;5093564;28;20484;-73
2021/10/27 17:33:02;;;;;;;9.23;4.87;;;14.00;83.00;;;;;;5092847;28;20204;-75
2021/10/27 17:35:28;;;;;;;12.30;5.93;;;13.90;83.20;;;;;;5093785;28;20483;-73
2021/10/27 17:37:54;;;;;;;7.53;5.20;;;13.90;83.50;;;;;;5092787;28;20492;-74